createdAt,value
2018-08-04T00:00:15.985Z,69.94
2018-08-04T00:02:45.602Z,71.32
2018-08-04T00:05:15.376Z,71.03
2018-08-04T00:07:45.068Z,71.52
2018-08-04T00:10:18.670Z,72.32
2018-08-04T00:12:51.622Z,71.69
2018-08-04T00:15:21.794Z,71.73
2018-08-04T00:17:51.649Z,72.42
2018-08-04T00:20:21.546Z,72.71
2018-08-04T00:22:51.123Z,72.85
2018-08-04T00:25:21.023Z,72.67
2018-08-04T00:27:51.048Z,73.07
2018-08-04T00:30:20.613Z,73.35
2018-08-04T00:32:50.162Z,74.62
2018-08-04T00:35:19.733Z,74.92
2018-08-04T00:37:49.474Z,75.14
2018-08-04T00:40:19.256Z,75.63
2018-08-04T00:42:48.971Z,75.00
2018-08-04T00:45:18.969Z,75.16
2018-08-04T00:47:48.815Z,74.94
2018-08-04T00:50:18.842Z,74.88
2018-08-04T00:52:48.662Z,74.97
2018-08-04T00:55:18.339Z,75.02
2018-08-04T00:57:48.154Z,74.35
2018-08-04T01:00:17.746Z,74.48
2018-08-04T01:02:47.291Z,74.98
2018-08-04T01:05:17.020Z,74.37
2018-08-04T01:07:46.988Z,74.23
2018-08-04T01:10:16.732Z,73.84
2018-08-04T01:12:46.551Z,73.76
2018-08-04T01:15:16.543Z,73.75
2018-08-04T01:17:46.457Z,74.33
2018-08-04T01:20:16.434Z,74.52
2018-08-04T01:22:46.301Z,76.19
2018-08-04T01:25:16.250Z,76.47
2018-08-04T01:27:46.048Z,76.77
2018-08-04T01:30:16.099Z,77.07
2018-08-04T01:32:45.803Z,77.17
2018-08-04T01:35:15.720Z,77.88
2018-08-04T01:37:45.494Z,77.54
2018-08-04T01:40:15.078Z,77.66
2018-08-04T01:42:44.648Z,77.88
2018-08-04T01:45:14.359Z,77.34
2018-08-04T01:47:43.912Z,77.77
2018-08-04T01:50:13.863Z,78.49
2018-08-04T01:52:43.848Z,78.66
2018-08-04T01:55:13.527Z,79.17
2018-08-04T01:57:43.313Z,79.00
2018-08-04T02:00:13.098Z,78.48
2018-08-04T02:02:42.858Z,79.31
2018-08-04T02:05:12.651Z,79.50
2018-08-04T02:07:42.390Z,79.80
2018-08-04T02:10:12.223Z,80.54
2018-08-04T02:12:42.162Z,80.32
2018-08-04T02:15:11.943Z,80.08
2018-08-04T02:17:41.679Z,79.85
2018-08-04T02:20:11.519Z,79.91
2018-08-04T02:22:41.186Z,79.68
2018-08-04T02:25:11.006Z,79.93
2018-08-04T02:27:40.636Z,79.96
2018-08-04T02:30:10.212Z,79.37
2018-08-04T02:32:39.825Z,78.97
2018-08-04T02:35:09.607Z,77.95
2018-08-04T02:37:39.278Z,77.74
2018-08-04T02:40:09.326Z,77.71
2018-08-04T02:42:39.075Z,77.39
2018-08-04T02:45:09.194Z,77.21
2018-08-04T02:47:39.217Z,77.28
2018-08-04T02:50:09.749Z,77.13
2018-08-04T02:52:39.400Z,77.41
2018-08-04T02:55:09.120Z,77.55
2018-08-04T02:57:38.905Z,77.71
2018-08-04T03:00:08.553Z,78.01
2018-08-04T03:02:38.311Z,79.13
2018-08-04T03:05:09.011Z,78.87
2018-08-04T03:07:38.618Z,79.80
2018-08-04T03:10:08.626Z,81.17
2018-08-04T03:12:38.210Z,80.82
2018-08-04T03:15:08.314Z,81.91
2018-08-04T03:17:38.057Z,81.57
2018-08-04T03:20:08.466Z,82.64
2018-08-04T03:22:38.516Z,82.96
2018-08-04T03:25:08.655Z,82.59
2018-08-04T03:27:38.255Z,81.66
2018-08-04T03:30:07.907Z,81.33
2018-08-04T03:32:37.490Z,81.10
2018-08-04T03:35:07.362Z,82.06
2018-08-04T03:37:37.084Z,82.26
2018-08-04T03:40:06.967Z,81.54
2018-08-04T03:42:36.896Z,82.38
2018-08-04T03:45:06.869Z,81.57
2018-08-04T03:47:36.646Z,81.84
2018-08-04T03:50:07.373Z,81.77
2018-08-04T03:52:37.322Z,81.54
2018-08-04T03:55:07.216Z,81.13
2018-08-04T03:57:37.218Z,80.83
2018-08-04T04:00:07.351Z,80.02
2018-08-04T04:02:37.002Z,79.94
2018-08-04T04:05:06.969Z,79.86
2018-08-04T04:07:36.944Z,80.56
2018-08-04T04:10:06.886Z,79.70
2018-08-04T04:12:36.678Z,80.24
2018-08-04T04:15:07.395Z,80.08
2018-08-04T04:17:43.670Z,79.77
2018-08-04T04:20:13.598Z,80.16
2018-08-04T04:22:43.407Z,80.53
2018-08-04T04:25:13.487Z,79.97
2018-08-04T04:27:43.612Z,80.12
2018-08-04T04:30:13.811Z,79.56
2018-08-04T04:32:43.534Z,79.05
2018-08-04T04:35:13.277Z,78.49
2018-08-04T04:37:42.958Z,78.68
2018-08-04T04:40:12.815Z,78.13
2018-08-04T04:42:42.875Z,78.01
2018-08-04T04:45:12.640Z,77.44
2018-08-04T04:47:42.400Z,77.39
2018-08-04T04:50:12.250Z,77.53
2018-08-04T04:52:41.923Z,77.16
2018-08-04T04:55:11.906Z,76.96
2018-08-04T04:57:41.558Z,76.54
2018-08-04T05:00:11.082Z,75.96
2018-08-04T05:02:40.718Z,75.00
2018-08-04T05:05:10.940Z,74.43
2018-08-04T05:07:40.550Z,73.23
2018-08-04T05:10:10.464Z,72.79
2018-08-04T05:12:40.236Z,71.46
2018-08-04T05:15:10.100Z,70.38
2018-08-04T05:17:40.165Z,69.26
2018-08-04T05:20:09.881Z,68.76
2018-08-04T05:22:39.690Z,69.66
2018-08-04T05:25:09.603Z,69.01
2018-08-04T05:27:39.336Z,67.74
2018-08-04T05:30:09.039Z,68.03
2018-08-04T05:32:38.836Z,68.51
2018-08-04T05:35:08.545Z,68.35
2018-08-04T05:37:38.319Z,67.78
2018-08-04T05:40:08.483Z,66.90
2018-08-04T05:42:38.347Z,66.43
2018-08-04T05:45:09.123Z,66.60
2018-08-04T05:47:39.174Z,66.01
2018-08-04T05:50:09.145Z,65.71
2018-08-04T05:52:39.343Z,64.81
2018-08-04T05:55:09.277Z,64.25
2018-08-04T05:57:38.843Z,63.38
2018-08-04T06:00:09.382Z,63.09
2018-08-04T06:02:39.133Z,62.75
2018-08-04T06:05:09.275Z,62.62
2018-08-04T06:07:39.238Z,62.03
2018-08-04T06:10:09.185Z,62.42
2018-08-04T06:12:38.875Z,61.97
2018-08-04T06:15:08.622Z,60.74
2018-08-04T06:17:38.383Z,61.54
2018-08-04T06:20:08.162Z,60.48
2018-08-04T06:22:38.190Z,60.43
2018-08-04T06:25:08.076Z,61.04
2018-08-04T06:27:37.678Z,60.38
2018-08-04T06:30:08.875Z,59.96
2018-08-04T06:32:38.798Z,59.50
2018-08-04T06:35:08.514Z,60.51
2018-08-04T06:37:38.231Z,60.61
2018-08-04T06:40:08.442Z,60.74
2018-08-04T06:42:38.102Z,59.70
2018-08-04T06:45:07.967Z,58.24
2018-08-04T06:47:37.736Z,58.85
2018-08-04T06:50:08.199Z,57.34
2018-08-04T06:52:38.156Z,57.57
2018-08-04T06:55:08.149Z,56.80
2018-08-04T06:57:37.766Z,56.90
2018-08-04T07:01:58.824Z,57.72
2018-08-04T07:04:28.834Z,56.96
2018-08-04T07:06:58.634Z,56.54
2018-08-04T07:09:28.353Z,54.87
2018-08-04T07:11:58.493Z,55.19
2018-08-04T07:14:28.194Z,53.81
2018-08-04T07:16:58.074Z,53.66
2018-08-04T07:19:28.221Z,51.90
2018-08-04T07:21:58.062Z,53.24
2018-08-04T07:24:27.926Z,53.45
2018-08-04T07:26:57.482Z,51.50
2018-08-04T07:29:27.185Z,52.80
2018-08-04T07:31:57.159Z,52.87
2018-08-04T07:34:27.051Z,49.56
2018-08-04T07:36:56.814Z,50.18
2018-08-04T07:39:26.654Z,48.13
2018-08-04T07:41:56.505Z,46.23
2018-08-04T07:44:26.178Z,45.66
2018-08-04T07:46:55.963Z,44.59
2018-08-04T07:49:31.400Z,45.24
2018-08-04T07:52:01.406Z,45.72
2018-08-04T07:54:30.956Z,44.13
2018-08-04T07:57:00.498Z,42.86
2018-08-04T07:59:30.285Z,42.09
2018-08-04T08:02:00.086Z,41.54
2018-08-04T08:04:29.762Z,40.76
2018-08-04T08:06:59.713Z,40.47
2018-08-04T08:09:29.676Z,41.41
2018-08-04T08:11:59.472Z,40.56
2018-08-04T08:14:29.133Z,39.67
2018-08-04T08:16:58.815Z,40.40
2018-08-04T08:19:28.851Z,40.03
2018-08-04T08:21:58.506Z,39.48
2018-08-04T08:24:28.238Z,38.74
2018-08-04T08:26:57.883Z,38.82
2018-08-04T08:29:27.466Z,38.74
2018-08-04T08:31:57.322Z,38.60
2018-08-04T08:34:27.272Z,38.04
2018-08-04T08:36:57.350Z,39.83
2018-08-04T08:39:26.990Z,38.22
2018-08-04T08:41:56.748Z,37.79
2018-08-04T08:44:26.475Z,38.31
2018-08-04T08:46:56.316Z,36.90
2018-08-04T08:49:26.054Z,37.47
2018-08-04T08:51:55.535Z,37.17
2018-08-04T08:54:25.101Z,37.57
2018-08-04T08:56:55.147Z,35.68
2018-08-04T08:59:24.907Z,36.22
2018-08-04T09:01:54.731Z,36.36
2018-08-04T09:04:24.408Z,37.42
2018-08-04T09:06:54.516Z,36.93
2018-08-04T09:09:24.352Z,35.61
2018-08-04T09:11:54.319Z,35.14
2018-08-04T09:14:24.292Z,35.04
2018-08-04T09:16:54.029Z,32.39
2018-08-04T09:19:23.899Z,33.40
2018-08-04T09:21:53.638Z,33.34
2018-08-04T09:24:23.561Z,34.10
2018-08-04T09:26:53.429Z,33.75
2018-08-04T09:29:23.218Z,32.87
2018-08-04T09:31:53.087Z,33.35
2018-08-04T09:34:23.159Z,33.45
2018-08-04T09:36:52.804Z,32.81
2018-08-04T09:39:22.547Z,32.85
2018-08-04T09:41:52.252Z,32.43
2018-08-04T09:44:21.966Z,33.10
2018-08-04T09:46:51.873Z,32.04
2018-08-04T09:49:21.803Z,30.30
2018-08-04T09:51:52.078Z,30.01
2018-08-04T09:54:21.731Z,30.15
2018-08-04T09:56:51.387Z,29.21
2018-08-04T09:59:21.463Z,29.07
2018-08-04T10:01:55.282Z,28.46
2018-08-04T10:04:25.278Z,27.99
2018-08-04T10:06:55.711Z,27.14
2018-08-04T10:09:25.489Z,28.08
2018-08-04T10:11:55.139Z,26.77
2018-08-04T10:14:25.213Z,27.39
2018-08-04T10:16:55.104Z,27.81
2018-08-04T10:19:25.265Z,26.59
2018-08-04T10:21:55.272Z,26.42
2018-08-04T10:24:24.913Z,27.65
2018-08-04T10:26:54.942Z,27.42
2018-08-04T10:29:24.686Z,26.41
2018-08-04T10:31:54.749Z,24.70
2018-08-04T10:34:24.807Z,24.97
2018-08-04T10:36:54.504Z,26.54
2018-08-04T10:39:24.189Z,25.17
2018-08-04T10:41:53.878Z,26.13
2018-08-04T10:44:23.718Z,26.17
2018-08-04T10:46:53.723Z,26.08
2018-08-04T10:49:23.628Z,25.88
2018-08-04T10:51:53.317Z,25.25
2018-08-04T10:54:22.994Z,25.35
2018-08-04T10:56:52.622Z,24.68
2018-08-04T10:59:22.343Z,25.11
2018-08-04T11:01:52.328Z,26.43
2018-08-04T11:04:22.345Z,25.58
2018-08-04T11:06:52.059Z,24.85
2018-08-04T11:09:21.747Z,25.05
2018-08-04T11:11:51.427Z,24.79
2018-08-04T11:14:21.114Z,24.36
2018-08-04T11:16:51.446Z,24.88
2018-08-04T11:19:21.383Z,26.18
2018-08-04T11:21:51.439Z,24.97
2018-08-04T11:24:21.339Z,23.65
2018-08-04T11:26:51.257Z,23.27
2018-08-04T11:29:21.657Z,23.33
2018-08-04T11:31:51.659Z,23.46
2018-08-04T11:34:21.590Z,23.01
2018-08-04T11:36:51.622Z,21.55
2018-08-04T11:39:21.323Z,21.86
2018-08-04T11:41:51.191Z,22.78
2018-08-04T11:44:21.492Z,23.56
2018-08-04T11:46:51.402Z,22.90
2018-08-04T11:49:21.315Z,22.96
2018-08-04T11:51:51.167Z,23.01
2018-08-04T11:54:21.125Z,23.80
2018-08-04T11:56:50.978Z,24.56
2018-08-04T11:59:20.535Z,22.87
2018-08-04T12:01:50.229Z,24.37
2018-08-04T12:04:20.047Z,24.20
2018-08-04T12:06:50.116Z,24.21
2018-08-04T12:09:20.342Z,24.42
2018-08-04T12:11:50.368Z,24.78
2018-08-04T12:14:20.136Z,24.74
2018-08-04T12:16:50.166Z,24.54
2018-08-04T12:19:19.876Z,25.51
2018-08-04T12:21:49.461Z,25.70
2018-08-04T12:24:18.956Z,25.35
2018-08-04T12:26:48.943Z,25.10
2018-08-04T12:29:18.543Z,25.55
2018-08-04T12:31:48.480Z,25.55
2018-08-04T12:34:18.564Z,26.36
2018-08-04T12:36:48.361Z,27.08
2018-08-04T12:39:18.340Z,27.33
2018-08-04T12:41:48.432Z,27.72
2018-08-04T12:44:18.158Z,27.07
2018-08-04T12:46:47.918Z,28.43
2018-08-04T12:49:17.399Z,28.81
2018-08-04T12:51:47.142Z,28.85
2018-08-04T12:54:16.988Z,28.09
2018-08-04T12:56:46.674Z,28.41
2018-08-04T12:59:16.175Z,28.03
2018-08-04T13:01:45.881Z,28.14
2018-08-04T13:04:15.800Z,28.70
2018-08-04T13:06:45.702Z,29.15
2018-08-04T13:09:15.289Z,28.76
2018-08-04T13:11:44.871Z,28.29
2018-08-04T13:14:14.693Z,27.31
2018-08-04T13:16:44.518Z,27.57
2018-08-04T13:19:14.150Z,26.85
2018-08-04T13:21:43.870Z,26.91
2018-08-04T13:24:13.530Z,27.26
2018-08-04T13:26:43.330Z,27.17
2018-08-04T13:29:12.901Z,27.83
2018-08-04T13:31:42.879Z,28.34
2018-08-04T13:34:12.551Z,28.25
2018-08-04T13:36:42.442Z,28.68
2018-08-04T13:39:12.414Z,28.62
2018-08-04T13:41:42.481Z,28.05
2018-08-04T13:44:12.437Z,28.42
2018-08-04T13:46:42.318Z,28.23
2018-08-04T13:49:12.061Z,27.28
2018-08-04T13:51:41.842Z,27.16
2018-08-04T13:54:11.578Z,27.04
2018-08-04T13:56:41.122Z,27.57
2018-08-04T13:59:10.782Z,27.91
2018-08-04T14:01:40.504Z,28.93
2018-08-04T14:04:10.403Z,29.87
2018-08-04T14:06:40.190Z,29.32
2018-08-04T14:09:11.273Z,28.31
2018-08-04T14:11:40.990Z,27.77
2018-08-04T14:14:10.847Z,28.35
2018-08-04T14:16:40.450Z,28.41
2018-08-04T14:19:10.062Z,27.51
2018-08-04T14:21:40.050Z,27.43
2018-08-04T14:24:10.111Z,27.44
2018-08-04T14:26:40.142Z,27.93
2018-08-04T14:29:10.370Z,27.80
2018-08-04T14:31:40.484Z,28.89
2018-08-04T14:34:10.638Z,28.16
2018-08-04T14:36:40.336Z,29.36
2018-08-04T14:39:12.446Z,28.99
2018-08-04T14:41:42.843Z,28.00
2018-08-04T14:44:12.654Z,28.40
2018-08-04T14:46:42.377Z,27.74
2018-08-04T14:49:11.994Z,27.30
2018-08-04T14:51:41.913Z,25.96
2018-08-04T14:54:11.959Z,26.85
2018-08-04T14:56:41.748Z,27.13
2018-08-04T14:59:11.642Z,26.95
2018-08-04T15:01:41.598Z,27.09
2018-08-04T15:04:11.606Z,27.88
2018-08-04T15:06:41.712Z,26.76
2018-08-04T15:09:12.708Z,27.94
2018-08-04T15:11:42.756Z,27.93
2018-08-04T15:14:12.473Z,28.01
2018-08-04T15:16:42.297Z,28.45
2018-08-04T15:19:11.994Z,28.10
2018-08-04T15:21:42.186Z,27.71
2018-08-04T15:24:11.990Z,27.68
2018-08-04T15:26:41.979Z,27.21
2018-08-04T15:29:11.657Z,28.11
2018-08-04T15:31:41.363Z,27.46
2018-08-04T15:34:11.115Z,27.01
2018-08-04T15:36:40.752Z,26.12
2018-08-04T15:39:11.061Z,25.85
2018-08-04T15:41:41.170Z,26.17
2018-08-04T15:44:11.324Z,25.87
2018-08-04T15:46:41.279Z,26.26
2018-08-04T15:49:11.323Z,25.63
2018-08-04T15:51:40.937Z,25.60
2018-08-04T15:54:10.794Z,27.19
2018-08-04T15:56:40.599Z,28.07
2018-08-04T15:59:10.346Z,29.69
2018-08-04T16:01:39.950Z,29.76
2018-08-04T16:04:09.886Z,30.25
2018-08-04T16:06:39.399Z,30.66
2018-08-04T16:09:10.378Z,31.18
2018-08-04T16:11:41.448Z,30.89
2018-08-04T16:14:11.572Z,32.44
2018-08-04T16:16:41.614Z,32.31
2018-08-04T16:19:11.459Z,32.64
2018-08-04T16:21:41.147Z,33.25
2018-08-04T16:24:10.858Z,32.75
2018-08-04T16:26:40.774Z,32.78
2018-08-04T16:29:10.810Z,32.77
2018-08-04T16:31:40.600Z,32.62
2018-08-04T16:34:10.353Z,31.60
2018-08-04T16:36:39.889Z,31.75
2018-08-04T16:39:10.490Z,31.45
2018-08-04T16:41:40.699Z,30.50
2018-08-04T16:44:10.459Z,30.05
2018-08-04T16:46:40.269Z,29.44
2018-08-04T16:49:09.980Z,28.73
2018-08-04T16:51:39.904Z,29.32
2018-08-04T16:54:09.606Z,29.52
2018-08-04T16:56:39.378Z,29.48
2018-08-04T16:59:09.374Z,28.34
2018-08-04T17:01:39.338Z,29.19
2018-08-04T17:04:08.987Z,28.83
2018-08-04T17:06:38.599Z,29.75
2018-08-04T17:09:10.748Z,29.70
2018-08-04T17:11:40.723Z,29.62
2018-08-04T17:14:10.578Z,29.96
2018-08-04T17:16:40.227Z,30.22
2018-08-04T17:19:10.046Z,30.39
2018-08-04T17:21:39.719Z,30.38
2018-08-04T17:24:09.631Z,30.78
2018-08-04T17:26:39.547Z,31.77
2018-08-04T17:29:09.290Z,31.85
2018-08-04T17:31:39.071Z,31.69
2018-08-04T17:34:08.723Z,32.58
2018-08-04T17:36:38.351Z,33.04
2018-08-04T17:39:09.971Z,33.48
2018-08-04T17:41:40.011Z,34.02
2018-08-04T17:44:09.974Z,34.05
2018-08-04T17:46:39.835Z,35.13
2018-08-04T17:49:09.500Z,34.79
2018-08-04T17:51:39.210Z,35.48
2018-08-04T17:54:08.991Z,35.95
2018-08-04T17:56:38.801Z,37.56
2018-08-04T17:59:08.551Z,37.55
2018-08-04T18:01:38.148Z,39.14
2018-08-04T18:04:07.874Z,38.58
2018-08-04T18:06:37.570Z,39.33
2018-08-04T18:09:09.422Z,40.36
2018-08-04T18:11:40.322Z,40.63
2018-08-04T18:14:10.087Z,41.20
2018-08-04T18:16:40.124Z,40.90
2018-08-04T18:19:09.715Z,41.14
2018-08-04T18:21:39.423Z,42.03
2018-08-04T18:24:09.094Z,43.48
2018-08-04T18:26:39.130Z,45.36
2018-08-04T18:29:08.962Z,46.41
2018-08-04T18:31:38.554Z,48.10
2018-08-04T18:34:08.176Z,49.49
2018-08-04T18:36:37.762Z,50.44
2018-08-04T18:39:08.822Z,52.51
2018-08-04T18:41:38.647Z,52.10
2018-08-04T18:44:08.836Z,53.34
2018-08-04T18:46:38.744Z,54.88
2018-08-04T18:49:08.598Z,54.80
2018-08-04T18:51:38.196Z,55.82
2018-08-04T18:54:08.083Z,57.10
2018-08-04T18:56:37.957Z,58.16
2018-08-04T18:59:07.653Z,58.26
2018-08-04T19:01:37.143Z,57.84
2018-08-04T19:04:06.663Z,59.09
2018-08-04T19:06:36.251Z,59.55
2018-08-04T19:09:08.894Z,59.62
2018-08-04T19:11:38.645Z,60.67
2018-08-04T19:14:09.165Z,60.43
2018-08-04T19:16:39.169Z,60.94
2018-08-04T19:19:09.033Z,61.20
2018-08-04T19:21:38.748Z,62.08
2018-08-04T19:24:08.592Z,62.16
2018-08-04T19:26:38.101Z,61.39
2018-08-04T19:29:07.848Z,62.18
2018-08-04T19:31:37.412Z,63.04
2018-08-04T19:34:07.055Z,63.68
2018-08-04T19:36:36.609Z,64.03
2018-08-04T19:39:08.531Z,63.84
2018-08-04T19:41:38.354Z,63.56
2018-08-04T19:44:08.182Z,63.88
2018-08-04T19:46:37.899Z,63.96
2018-08-04T19:49:07.536Z,63.66
2018-08-04T19:51:37.630Z,64.40
2018-08-04T19:54:07.378Z,64.50
2018-08-04T19:56:37.191Z,64.50
2018-08-04T19:59:07.006Z,64.06
2018-08-04T20:01:36.704Z,64.13
2018-08-04T20:04:06.572Z,65.01
2018-08-04T20:06:36.534Z,64.18
2018-08-04T20:09:08.728Z,64.06
2018-08-04T20:11:38.574Z,64.32
2018-08-04T20:14:08.402Z,64.33
2018-08-04T20:16:37.965Z,63.81
2018-08-04T20:19:07.796Z,63.97
2018-08-04T20:21:37.800Z,63.96
2018-08-04T20:24:07.890Z,64.02
2018-08-04T20:26:37.407Z,63.83
2018-08-04T20:29:07.366Z,63.71
2018-08-04T20:31:37.434Z,64.22
2018-08-04T20:34:07.013Z,64.43
2018-08-04T20:36:36.727Z,65.24
2018-08-04T20:39:09.040Z,65.31
2018-08-04T20:41:38.650Z,65.71
2018-08-04T20:44:08.551Z,65.92
2018-08-04T20:46:38.575Z,66.21
2018-08-04T20:49:08.595Z,65.37
2018-08-04T20:51:38.359Z,66.25
2018-08-04T20:54:08.436Z,66.00
2018-08-04T20:56:38.603Z,66.01
2018-08-04T20:59:08.222Z,65.79
2018-08-04T21:01:47.718Z,66.14
2018-08-04T21:04:17.570Z,65.51
2018-08-04T21:06:48.048Z,64.81
2018-08-04T21:09:17.835Z,66.16
2018-08-04T21:11:50.582Z,66.31
2018-08-04T21:14:21.691Z,67.15
2018-08-04T21:16:52.336Z,66.60
2018-08-04T21:19:23.026Z,66.89
2018-08-04T21:21:52.658Z,65.53
2018-08-04T21:24:23.837Z,66.41
2018-08-04T21:26:54.678Z,66.57
2018-08-04T21:29:24.804Z,66.00
2018-08-04T21:31:54.496Z,66.16
2018-08-04T21:34:24.200Z,65.95
2018-08-04T21:36:54.038Z,66.67
2018-08-04T21:39:23.939Z,66.97
2018-08-04T21:41:53.984Z,67.91
2018-08-04T21:44:23.938Z,68.04
2018-08-04T21:46:53.922Z,68.58
2018-08-04T21:49:23.636Z,68.27
2018-08-04T21:51:53.495Z,68.53
2018-08-04T21:54:23.304Z,69.21
2018-08-04T21:56:53.270Z,68.84
2018-08-04T21:59:22.947Z,68.69
2018-08-04T22:01:54.845Z,68.33
2018-08-04T22:04:24.947Z,68.76
2018-08-04T22:08:06.879Z,68.42
2018-08-04T22:10:36.829Z,68.90
2018-08-04T22:13:06.991Z,69.18
2018-08-04T22:15:37.077Z,69.39
2018-08-04T22:18:07.138Z,69.25
2018-08-04T22:20:37.163Z,69.23
2018-08-04T22:23:07.300Z,69.63
2018-08-04T22:25:37.414Z,69.32
2018-08-04T22:28:07.198Z,69.08
2018-08-04T22:30:36.930Z,68.94
2018-08-04T22:33:07.015Z,69.20
2018-08-04T22:35:37.083Z,70.02
2018-08-04T22:38:07.141Z,70.06
2018-08-04T22:40:37.219Z,69.83
2018-08-04T22:43:07.399Z,69.89
2018-08-04T22:46:11.419Z,70.13
2018-08-04T22:48:42.335Z,70.33
2018-08-04T22:51:12.404Z,70.02
2018-08-04T22:53:42.562Z,70.11
2018-08-04T22:56:12.558Z,70.16
2018-08-04T22:58:42.251Z,69.56
2018-08-04T23:01:11.901Z,69.89
2018-08-04T23:03:41.630Z,70.74
2018-08-04T23:06:11.763Z,70.39
2018-08-04T23:08:41.674Z,70.21
2018-08-04T23:11:11.739Z,70.21
2018-08-04T23:13:41.689Z,70.51
2018-08-04T23:16:11.864Z,70.46
2018-08-04T23:18:41.910Z,70.68
2018-08-04T23:21:12.105Z,70.87
2018-08-04T23:23:42.150Z,71.26
2018-08-04T23:26:12.234Z,71.29
2018-08-04T23:28:42.323Z,71.11
2018-08-04T23:31:12.004Z,71.22
2018-08-04T23:33:41.716Z,71.70
2018-08-04T23:36:11.834Z,70.79
2018-08-04T23:38:41.800Z,71.56
2018-08-04T23:41:11.879Z,70.87
2018-08-04T23:43:41.873Z,71.98
2018-08-04T23:46:11.574Z,72.54
2018-08-04T23:48:41.377Z,72.11
2018-08-04T23:51:11.187Z,72.85
2018-08-04T23:53:41.030Z,72.45
2018-08-04T23:56:10.931Z,72.30
2018-08-04T23:58:40.467Z,72.29
